createdAt,value
2019-02-02T00:02:09.234Z,9.03
2019-02-02T00:07:14.023Z,13.47
2019-02-02T00:12:18.662Z,6.43
2019-02-02T00:17:23.507Z,12.70
2019-02-02T00:22:28.354Z,6.80
2019-02-02T00:27:41.082Z,9.87
2019-02-02T00:32:39.481Z,10.80
2019-02-02T00:37:44.324Z,13.87
2019-02-02T00:42:49.067Z,9.13
2019-02-02T00:47:53.810Z,10.50
2019-02-02T00:53:01.015Z,7.50
2019-02-02T00:58:04.834Z,7.17
2019-02-02T01:03:09.672Z,6.50
2019-02-02T01:08:14.522Z,9.93
2019-02-02T01:13:19.267Z,14.67
2019-02-02T01:18:24.084Z,6.97
2019-02-02T01:23:28.761Z,5.07
2019-02-02T01:28:33.391Z,5.00
2019-02-02T01:33:38.133Z,4.20
2019-02-02T01:38:43.286Z,4.03
2019-02-02T01:43:48.026Z,3.77
2019-02-02T01:48:52.774Z,5.40
2019-02-02T01:53:57.292Z,4.80
2019-02-02T01:59:02.052Z,4.17
2019-02-02T02:04:06.831Z,3.57
2019-02-02T02:09:11.545Z,6.93
2019-02-02T02:14:16.187Z,7.97
2019-02-02T02:19:20.760Z,6.03
2019-02-02T02:24:25.466Z,4.53
2019-02-02T02:29:30.102Z,5.20
2019-02-02T02:34:34.852Z,3.83
2019-02-02T02:39:39.588Z,3.67
2019-02-02T02:44:44.338Z,4.30
2019-02-02T02:49:49.175Z,4.30
2019-02-02T02:54:53.920Z,4.50
2019-02-02T02:59:58.771Z,3.63
2019-02-02T03:05:03.812Z,4.00
2019-02-02T03:10:16.588Z,3.20
2019-02-02T03:15:21.281Z,3.90
2019-02-02T03:20:26.142Z,4.07
2019-02-02T03:25:30.877Z,4.10
2019-02-02T03:30:35.749Z,4.30
2019-02-02T03:35:40.678Z,2.87
2019-02-02T03:40:45.420Z,2.70
2019-02-02T03:45:50.052Z,2.97
2019-02-02T03:50:54.599Z,4.70
2019-02-02T03:56:00.371Z,4.50
2019-02-02T04:01:05.210Z,4.90
2019-02-02T04:06:09.947Z,4.10
2019-02-02T04:11:14.996Z,3.40
2019-02-02T04:16:19.746Z,3.33
2019-02-02T04:21:24.489Z,3.13
2019-02-02T04:26:30.988Z,5.23
2019-02-02T04:31:35.813Z,4.80
2019-02-02T04:36:40.572Z,4.33
2019-02-02T04:41:45.299Z,3.73
2019-02-02T04:46:50.245Z,4.07
2019-02-02T04:51:54.890Z,5.97
2019-02-02T04:56:59.720Z,5.47
2019-02-02T05:02:04.476Z,3.90
2019-02-02T05:07:09.237Z,3.60
2019-02-02T05:12:13.963Z,4.20
2019-02-02T05:17:18.707Z,7.70
2019-02-02T05:22:23.461Z,7.00
2019-02-02T05:27:28.088Z,8.17
2019-02-02T05:32:32.731Z,6.30
2019-02-02T05:37:37.779Z,15.23
2019-02-02T05:42:42.387Z,14.67
2019-02-02T05:47:47.280Z,19.37
2019-02-02T05:52:52.191Z,16.73
2019-02-02T05:57:56.862Z,9.30
2019-02-02T06:03:01.954Z,4.57
2019-02-02T06:08:06.813Z,5.70
2019-02-02T06:13:11.707Z,5.97
2019-02-02T06:18:16.442Z,7.70
2019-02-02T06:23:21.296Z,7.13
2019-02-02T06:28:26.032Z,15.70
2019-02-02T06:33:30.777Z,8.80
2019-02-02T06:38:35.525Z,18.80
2019-02-02T06:43:40.362Z,10.97
2019-02-02T06:48:45.111Z,8.47
2019-02-02T06:53:49.926Z,6.50
2019-02-02T06:58:54.770Z,7.10
2019-02-02T07:03:59.436Z,49.00
2019-02-02T07:09:04.794Z,12.70
2019-02-02T07:14:10.077Z,9.80
2019-02-02T07:19:14.892Z,9.37
2019-02-02T07:24:20.642Z,10.17
2019-02-02T07:29:25.477Z,15.17
2019-02-02T07:34:31.305Z,7.50
2019-02-02T07:39:37.001Z,7.20
2019-02-02T07:44:41.620Z,8.87
2019-02-02T07:49:46.940Z,14.27
2019-02-02T07:54:51.455Z,14.93
2019-02-02T07:59:56.117Z,20.80
2019-02-02T08:05:00.969Z,7.63
2019-02-02T08:10:09.014Z,11.53
2019-02-02T08:15:17.836Z,5.80
2019-02-02T08:20:22.771Z,5.27
2019-02-02T08:25:27.525Z,6.53
2019-02-02T08:30:35.561Z,7.37
2019-02-02T08:35:39.765Z,11.33
2019-02-02T08:40:44.508Z,4.77
2019-02-02T08:45:49.258Z,6.57
2019-02-02T08:50:53.888Z,4.00
2019-02-02T08:55:58.635Z,6.30
2019-02-02T09:01:04.397Z,8.80
2019-02-02T09:06:09.471Z,5.70
2019-02-02T09:11:14.134Z,9.20
2019-02-02T09:16:19.048Z,18.07
2019-02-02T09:21:23.785Z,9.43
2019-02-02T09:26:28.632Z,11.37
2019-02-02T09:31:33.477Z,41.53
2019-02-02T09:36:38.321Z,28.23
2019-02-02T09:41:43.067Z,11.37
2019-02-02T09:46:47.716Z,14.43
2019-02-02T09:51:52.675Z,8.73
2019-02-02T09:56:58.724Z,10.60
2019-02-02T10:02:04.312Z,5.87
2019-02-02T10:07:09.896Z,7.33
2019-02-02T10:12:15.815Z,14.93
2019-02-02T10:17:21.736Z,7.93
2019-02-02T10:22:27.173Z,7.57
2019-02-02T10:27:31.862Z,15.53
2019-02-02T10:32:36.556Z,9.30
2019-02-02T10:37:41.542Z,6.90
2019-02-02T10:42:47.727Z,16.57
2019-02-02T10:47:53.741Z,8.10
2019-02-02T10:52:58.841Z,5.33
2019-02-02T10:58:04.753Z,8.77
2019-02-02T11:03:09.718Z,7.87
2019-02-02T11:08:14.608Z,6.70
2019-02-02T11:13:19.728Z,14.20
2019-02-02T11:18:26.345Z,8.97
2019-02-02T11:23:31.089Z,17.40
2019-02-02T11:28:35.924Z,6.90
2019-02-02T11:33:40.836Z,11.13
2019-02-02T11:38:45.577Z,12.03
2019-02-02T11:43:51.522Z,19.33
2019-02-02T11:48:56.253Z,7.37
2019-02-02T11:54:00.947Z,8.73
2019-02-02T11:59:06.632Z,9.33
2019-02-02T12:04:11.447Z,12.80
2019-02-02T12:09:16.071Z,10.83
2019-02-02T12:14:20.725Z,7.47
2019-02-02T12:19:25.521Z,7.53
2019-02-02T12:24:30.111Z,10.37
2019-02-02T12:29:35.171Z,8.90
2019-02-02T12:34:40.068Z,9.07
2019-02-02T12:39:45.261Z,7.93
2019-02-02T12:44:50.014Z,10.17
2019-02-02T12:49:54.961Z,8.93
2019-02-02T12:55:00.010Z,8.13
2019-02-02T13:00:10.483Z,9.47
2019-02-02T13:05:16.975Z,6.40
2019-02-02T13:10:27.358Z,11.67
2019-02-02T13:15:32.093Z,14.50
2019-02-02T13:20:38.294Z,9.70
2019-02-02T13:25:46.412Z,15.10
2019-02-02T13:30:52.206Z,14.50
2019-02-02T13:35:57.827Z,6.97
2019-02-02T13:41:03.521Z,20.93
2019-02-02T13:46:10.750Z,7.27
2019-02-02T13:51:16.456Z,6.60
2019-02-02T13:56:21.303Z,9.83
2019-02-02T14:01:26.038Z,5.87
2019-02-02T14:06:30.989Z,7.90
2019-02-02T14:11:35.854Z,6.30
2019-02-02T14:16:40.579Z,10.53
2019-02-02T14:21:45.228Z,23.00
2019-02-02T14:26:50.071Z,13.97
2019-02-02T14:31:54.948Z,9.57
2019-02-02T14:36:59.859Z,5.80
2019-02-02T14:42:04.913Z,30.83
2019-02-02T14:47:09.938Z,7.10
2019-02-02T14:52:15.329Z,11.73
2019-02-02T14:57:19.962Z,16.90
2019-02-02T15:02:24.774Z,10.13
2019-02-02T15:07:29.650Z,9.80
2019-02-02T15:12:36.999Z,7.40
2019-02-02T15:17:44.390Z,9.37
2019-02-02T15:22:48.084Z,7.37
2019-02-02T15:27:52.733Z,9.00
2019-02-02T15:32:57.471Z,6.47
2019-02-02T15:38:02.333Z,10.30
2019-02-02T15:43:08.606Z,9.37
2019-02-02T15:48:13.359Z,18.80
2019-02-02T15:53:18.179Z,27.43
2019-02-02T15:58:22.921Z,24.13
2019-02-02T16:03:27.540Z,28.73
2019-02-02T16:08:32.323Z,20.00
2019-02-02T16:13:37.057Z,21.63
2019-02-02T16:18:41.803Z,13.53
2019-02-02T16:23:46.568Z,10.57
2019-02-02T16:28:51.487Z,13.40
2019-02-02T16:34:02.281Z,16.37
2019-02-02T16:39:02.816Z,29.43
2019-02-02T16:44:09.400Z,21.23
2019-02-02T16:49:14.659Z,37.83
2019-02-02T16:54:19.501Z,38.77
2019-02-02T16:59:24.319Z,37.97
2019-02-02T17:04:29.293Z,28.80
2019-02-02T17:09:34.074Z,31.93
2019-02-02T17:14:39.078Z,36.23
2019-02-02T17:19:43.839Z,51.77
2019-02-02T17:24:50.317Z,16.80
2019-02-02T17:29:56.400Z,16.97
2019-02-02T17:35:01.133Z,20.13
2019-02-02T17:40:12.629Z,36.23
2019-02-02T17:45:19.558Z,47.13
2019-02-02T17:50:29.198Z,22.70
2019-02-02T17:55:34.372Z,11.53
2019-02-02T18:00:47.085Z,36.47
2019-02-02T18:05:53.303Z,15.03
2019-02-02T18:10:58.100Z,31.07
2019-02-02T18:16:03.043Z,15.93
2019-02-02T18:21:07.891Z,36.13
2019-02-02T18:26:13.756Z,39.93
2019-02-02T18:31:19.944Z,30.60
2019-02-02T18:36:24.693Z,24.17
2019-02-02T18:41:29.420Z,35.10
2019-02-02T18:46:34.479Z,24.63
2019-02-02T18:51:39.420Z,26.07
2019-02-02T18:56:45.490Z,27.27
2019-02-02T19:01:50.441Z,24.47
2019-02-02T19:06:55.184Z,35.73
2019-02-02T19:12:00.403Z,33.33
2019-02-02T19:17:05.316Z,43.80
2019-02-02T19:22:10.293Z,27.43
2019-02-02T19:27:15.085Z,33.77
2019-02-02T19:32:19.827Z,28.77
2019-02-02T19:37:24.777Z,21.77
2019-02-02T19:42:31.385Z,19.40
2019-02-02T19:47:35.698Z,20.03
2019-02-02T19:52:40.726Z,16.50
2019-02-02T19:57:45.520Z,28.33
2019-02-02T20:02:50.235Z,23.90
2019-02-02T20:07:54.962Z,23.77
2019-02-02T20:12:59.818Z,29.90
2019-02-02T20:18:10.084Z,40.47
2019-02-02T20:23:12.479Z,15.60
2019-02-02T20:28:17.426Z,15.20
2019-02-02T20:33:22.493Z,17.67
2019-02-02T20:38:28.603Z,34.50
2019-02-02T20:43:35.171Z,28.50
2019-02-02T20:48:40.669Z,18.50
2019-02-02T20:53:45.286Z,18.20
2019-02-02T20:58:51.204Z,20.20
2019-02-02T21:03:56.050Z,20.33
2019-02-02T21:09:00.703Z,26.57
2019-02-02T21:14:07.376Z,19.10
2019-02-02T21:19:12.135Z,14.93
2019-02-02T21:24:17.071Z,18.67
2019-02-02T21:29:21.619Z,17.20
2019-02-02T21:34:26.348Z,18.70
2019-02-02T21:39:31.100Z,16.67
2019-02-02T21:44:42.935Z,15.67
2019-02-02T21:49:42.156Z,22.97
2019-02-02T21:54:47.512Z,24.50
2019-02-02T21:59:52.223Z,23.93
2019-02-02T22:04:57.018Z,19.23
2019-02-02T22:10:01.806Z,18.57
2019-02-02T22:15:13.100Z,17.67
2019-02-02T22:20:18.603Z,17.60
2019-02-02T22:25:33.961Z,16.73
2019-02-02T22:30:38.791Z,17.80
2019-02-02T22:35:43.645Z,13.53
2019-02-02T22:40:48.384Z,14.17
2019-02-02T22:45:53.129Z,13.40
2019-02-02T22:50:57.875Z,11.63
2019-02-02T22:56:02.618Z,10.57
2019-02-02T23:01:13.505Z,11.00
2019-02-02T23:06:39.489Z,9.57
2019-02-02T23:11:47.673Z,13.30
2019-02-02T23:16:52.826Z,12.23
2019-02-02T23:21:57.560Z,11.40
2019-02-02T23:27:02.306Z,9.87
2019-02-02T23:32:09.854Z,11.60
2019-02-02T23:37:14.446Z,12.50
2019-02-02T23:42:19.195Z,14.90
2019-02-02T23:47:23.941Z,14.97
2019-02-02T23:52:28.686Z,17.67
2019-02-02T23:57:33.300Z,15.93
